EDT,Max TemperatureF,Mean TemperatureF,Min TemperatureF,Max Dew PointF,MeanDew PointF,Min DewpointF,Max Humidity, Mean Humidity, Min Humidity, Max Sea Level PressureIn, Mean Sea Level PressureIn, Min Sea Level PressureIn, Max VisibilityMiles, Mean VisibilityMiles, Min VisibilityMiles, Max Wind SpeedMPH, Mean Wind SpeedMPH, Max Gust SpeedMPH,PrecipitationIn, CloudCover, Events, WindDirDegrees
2012-10-1,57,56,55,57,55,55,100,99,94,29.99,29.95,29.91,10,5,2,9,2,,0.43,8,Rain,59
2012-10-2,75,66,57,70,62,57,100,96,73,30.05,29.93,29.87,10,6,0,7,2,,0.50,6,Fog-Rain,74
2012-10-3,73,66,60,64,62,61,100,87,65,30.27,30.16,30.05,10,9,2,6,1,,0.00,3,,197
2012-10-4,77,65,53,61,57,52,100,77,41,30.32,30.28,30.25,10,9,2,9,2,,0.00,0,,298
2012-10-5,77,64,50,57,53,48,100,77,41,30.30,30.20,30.10,10,10,5,9,1,,0.00,0,,203
2012-10-6,75,62,50,59,55,50,100,82,53,30.09,30.03,29.98,10,8,1,13,2,25,0.16,4,Rain,292
2012-10-7,55,48,41,55,48,41,100,93,87,30.22,30.12,30.04,10,9,2,9,2,,0.59,7,Rain-Thunderstorm,54
2012-10-8,46,44,41,45,42,39,100,93,76,30.30,30.24,30.20,10,8,2,8,1,,0.02,8,Rain,57
2012-10-9,59,50,42,50,46,43,100,86,59,30.24,30.18,30.14,10,9,2,7,1,,0.01,8,,134
2012-10-10,66,55,44,50,47,41,100,72,52,30.21,30.12,30.08,10,10,10,12,3,21,0.00,5,,257
2012-10-11,64,50,35,46,40,36,100,69,42,30.36,30.29,30.21,10,10,7,12,2,,0.00,0,,183
2012-10-12,69,55,41,50,44,41,100,76,43,30.39,30.29,30.24,10,10,5,10,1,,0.00,1,,335
2012-10-13,62,50,37,45,40,34,100,69,45,30.55,30.45,30.38,10,10,10,7,3,,0.00,1,,113
2012-10-14,64,52,41,55,50,41,100,86,64,30.39,30.25,30.09,10,10,7,9,1,,0.00,6,,225
2012-10-15,71,61,50,61,51,39,100,73,35,30.09,29.93,29.83,10,10,4,15,4,24,0.57,4,Rain-Thunderstorm,260
2012-10-16,68,55,42,45,41,37,93,65,33,30.04,29.98,29.92,10,10,10,8,2,16,0.00,0,,202
2012-10-17,68,54,39,46,44,37,100,75,43,30.06,29.99,29.95,10,10,10,10,1,17,0.00,0,,172
2012-10-18,68,56,44,57,51,43,100,87,68,29.97,29.90,29.83,10,9,0,9,1,,0.00,5,Fog,198
2012-10-19,68,55,42,54,42,34,100,69,28,29.85,29.81,29.74,10,8,0,13,3,21,0.00,2,Fog,212
2012-10-20,64,52,39,43,39,37,93,69,42,30.04,29.90,29.82,10,10,10,10,2,23,0.00,2,,310
2012-10-21,66,50,35,45,39,34,100,74,35,30.22,30.15,30.05,10,10,7,7,1,,0.00,0,,88
2012-10-22,75,56,37,50,46,37,100,72,36,30.30,30.24,30.19,10,10,7,6,1,,0.00,0,,209
2012-10-23,78,60,42,54,50,43,100,74,36,30.26,30.21,30.15,10,10,5,9,1,,0.00,0,,200
2012-10-24,78,62,46,54,49,45,100,72,30,30.27,30.21,30.15,10,10,5,7,1,,0.00,0,,105
2012-10-25,77,60,44,55,51,45,100,74,41,30.24,30.19,30.15,10,10,3,10,1,,0.00,2,,124
2012-10-26,73,63,53,57,54,52,100,80,53,30.20,30.13,30.05,10,10,10,10,2,,0.00,2,,85
2012-10-27,68,62,55,59,54,48,94,79,56,30.05,29.92,29.83,10,10,4,15,4,21,0.00,5,Rain,24
2012-10-28,62,53,44,48,43,32,87,71,52,29.87,29.79,29.72,10,10,10,14,4,22,0.00,4,Rain,327
2012-10-29,44,42,41,34,31,28,70,62,57,29.77,29.66,29.49,10,10,10,23,8,33,0.00,7,,295
2012-10-30,42,40,35,32,29,27,87,62,57,29.66,29.51,29.41,10,10,10,24,13,39,0.00,6,,279
2012-10-31,48,42,35,34,32,30,93,71,54,29.82,29.74,29.65,10,10,10,15,4,25,0.00,5,,286